Time;durP1;ratioP1;P1;durP2;ratioP2;P2;SDS_P1;SDS_P2;PMS_P1;PMS_P2;Temp;Humidity;BMP_temperature;BMP_pressure;BME280_temperature;BME280_humidity;BME280_pressure;Samples;Min_cycle;Max_cycle;Signal;HPM_P1;HPM_P2
2023/05/10 00:02:24;;;;;;;204.55;56.42;;;12.40;99.90;;;;;;5053826;28;20040;-80
2023/05/10 00:04:50;;;;;;;120.85;50.13;;;12.40;99.90;;;;;;5054025;28;20083;-80
2023/05/10 00:07:17;;;;;;;130.65;51.22;;;12.40;99.90;;;;;;5037313;28;20052;-80
2023/05/10 00:09:43;;;;;;;98.22;46.80;;;12.50;99.90;;;;;;5035836;28;20041;-80
2023/05/10 00:12:08;;;;;;;96.45;45.25;;;12.40;99.90;;;;;;5051827;28;20047;-80
2023/05/10 00:14:34;;;;;;;210.73;53.30;;;12.40;99.90;;;;;;5053703;28;20041;-80
2023/05/10 00:17:00;;;;;;;95.60;43.83;;;12.40;99.90;;;;;;5037000;28;20486;-80
2023/05/10 00:19:25;;;;;;;123.70;45.47;;;12.40;99.90;;;;;;5052819;28;20045;-80
2023/05/10 00:21:51;;;;;;;84.70;40.55;;;12.40;99.90;;;;;;5037151;28;20048;-82
2023/05/10 00:24:16;;;;;;;123.13;44.40;;;12.40;99.90;;;;;;5036273;28;20082;-80
2023/05/10 00:26:42;;;;;;;100.72;40.90;;;12.40;99.90;;;;;;5053020;28;20044;-80
2023/05/10 00:29:08;;;;;;;80.72;38.35;;;12.40;99.90;;;;;;5036077;28;20068;-81
2023/05/10 00:31:33;;;;;;;82.57;36.30;;;12.40;99.90;;;;;;5037111;28;20421;-80
2023/05/10 00:33:59;;;;;;;86.50;37.38;;;12.40;99.90;;;;;;5035707;28;20049;-80
2023/05/10 00:36:24;;;;;;;98.47;38.90;;;12.40;99.90;;;;;;5051862;28;20048;-81
2023/05/10 00:38:50;;;;;;;65.47;34.75;;;12.40;99.90;;;;;;5034671;28;20034;-81
2023/05/10 00:41:15;;;;;;;96.25;36.10;;;12.40;99.90;;;;;;5036376;28;20033;-81
2023/05/10 00:43:41;;;;;;;113.07;39.45;;;12.40;99.90;;;;;;5053362;28;20107;-81
2023/05/10 00:46:07;;;;;;;59.63;33.13;;;12.40;99.90;;;;;;5053325;28;20503;-81
2023/05/10 00:48:34;;;;;;;79.15;34.67;;;12.40;99.90;;;;;;5034402;28;20059;-81
2023/05/10 00:51:00;;;;;;;74.90;32.60;;;12.40;99.90;;;;;;5053237;28;20454;-81
2023/05/10 00:53:26;;;;;;;71.40;33.78;;;12.40;99.90;;;;;;5053194;28;20513;-81
2023/05/10 00:55:52;;;;;;;82.72;33.33;;;12.40;99.90;;;;;;5069106;28;20662;-81
2023/05/10 00:58:18;;;;;;;60.45;31.15;;;12.40;99.90;;;;;;5035590;28;20040;-81
2023/05/10 01:00:48;;;;;;;59.10;30.25;;;12.40;99.90;;;;;;5067823;28;20063;-81
2023/05/10 01:03:14;;;;;;;97.03;34.13;;;12.40;99.90;;;;;;5052354;28;20499;-80
2023/05/10 01:05:39;;;;;;;90.53;33.58;;;12.40;99.90;;;;;;5052779;28;20121;-80
2023/05/10 01:08:06;;;;;;;74.25;32.15;;;12.40;99.90;;;;;;5034289;28;20333;-81
2023/05/10 01:10:32;;;;;;;84.82;32.13;;;12.40;99.90;;;;;;5035799;28;20091;-80
2023/05/10 01:12:59;;;;;;;86.15;32.75;;;12.40;99.90;;;;;;5036298;28;20470;-80
2023/05/10 01:15:25;;;;;;;53.85;28.77;;;12.40;99.90;;;;;;5051797;28;20037;-80
2023/05/10 01:17:52;;;;;;;72.90;31.13;;;12.40;99.90;;;;;;5052547;28;20040;-80
2023/05/10 01:20:17;;;;;;;51.97;29.15;;;12.40;99.90;;;;;;5051947;28;20041;-81
2023/05/10 01:23:13;;;;;;;52.00;28.40;;;12.30;99.90;;;;;;5052160;28;20488;-81
2023/05/10 01:26:07;;;;;;;71.30;30.15;;;12.40;99.90;;;;;;5034725;28;20383;-81
2023/05/10 01:29:11;;;;;;;106.72;33.65;;;12.40;99.90;;;;;;5035237;28;20387;-81
2023/05/10 01:31:55;;;;;;;54.10;26.85;;;12.30;99.90;;;;;;5068962;28;20051;-81
2023/05/10 01:34:28;;;;;;;92.13;31.23;;;12.30;99.90;;;;;;5068581;28;20072;-80
2023/05/10 01:37:05;;;;;;;;;;;12.30;99.90;;;;;;5035331;28;20128;-80
2023/05/10 01:40:05;;;;;;;54.78;26.77;;;12.30;99.90;;;;;;5051841;28;20337;-81
2023/05/10 01:42:47;;;;;;;58.83;28.15;;;12.20;99.90;;;;;;5033520;28;20136;-80
2023/05/10 01:45:41;;;;;;;57.25;27.80;;;12.20;99.90;;;;;;5046174;28;20505;-80
2023/05/10 01:48:09;;;;;;;38.83;24.25;;;12.20;99.90;;;;;;5051881;28;20534;-80
2023/05/10 01:50:37;;;;;;;75.93;29.38;;;12.20;99.90;;;;;;5068194;28;20037;-80
2023/05/10 01:53:09;;;;;;;46.50;25.88;;;12.20;99.90;;;;;;5035265;28;20526;-80
2023/05/10 01:55:45;;;;;;;31.30;22.73;;;12.20;99.90;;;;;;5050573;28;20044;-81
2023/05/10 01:58:16;;;;;;;39.10;24.20;;;12.20;99.90;;;;;;5051225;28;20235;-80
2023/05/10 02:00:45;;;;;;;40.80;23.45;;;12.10;99.90;;;;;;5048946;28;20147;-80
2023/05/10 02:03:13;;;;;;;52.75;25.23;;;12.10;99.90;;;;;;5052251;28;20434;-80
2023/05/10 02:05:41;;;;;;;32.33;22.38;;;12.10;99.90;;;;;;5051860;28;20060;-80
2023/05/10 02:08:08;;;;;;;61.28;25.35;;;12.10;99.90;;;;;;5034962;28;20049;-80
2023/05/10 02:10:35;;;;;;;71.95;27.38;;;12.10;99.90;;;;;;5049045;28;20037;-80
2023/05/10 02:13:02;;;;;;;40.30;23.02;;;12.10;99.90;;;;;;5051158;28;20131;-80
2023/05/10 02:15:29;;;;;;;35.17;22.98;;;12.00;99.90;;;;;;5051421;28;20037;-80
2023/05/10 02:17:56;;;;;;;34.78;22.13;;;12.00;99.90;;;;;;5050217;28;20541;-80
2023/05/10 02:20:24;;;;;;;44.03;24.77;;;12.00;99.90;;;;;;5033466;28;20037;-80
2023/05/10 02:22:52;;;;;;;34.75;23.88;;;12.00;99.90;;;;;;5034888;28;20037;-81
2023/05/10 02:25:19;;;;;;;58.17;27.90;;;12.00;99.90;;;;;;5050570;28;20507;-80
2023/05/10 02:27:47;;;;;;;37.30;25.17;;;12.00;99.90;;;;;;5032091;28;20047;-80
2023/05/10 02:30:13;;;;;;;68.30;29.02;;;12.10;99.90;;;;;;5033295;28;20071;-80
2023/05/10 02:32:39;;;;;;;45.08;25.42;;;12.10;99.90;;;;;;5031918;28;20150;-80
2023/05/10 02:35:07;;;;;;;48.67;26.98;;;12.10;99.90;;;;;;5034465;28;20136;-80
2023/05/10 02:37:34;;;;;;;47.42;25.50;;;12.10;99.90;;;;;;5050828;28;20044;-80
2023/05/10 02:40:03;;;;;;;48.15;27.40;;;12.10;99.90;;;;;;5065156;28;20446;-80
2023/05/10 02:42:30;;;;;;;37.63;24.73;;;12.10;99.90;;;;;;5051345;28;20048;-80
2023/05/10 02:45:01;;;;;;;69.75;30.45;;;12.10;99.90;;;;;;5050381;28;20045;-80
2023/05/10 02:47:28;;;;;;;34.63;23.45;;;12.10;99.90;;;;;;5050129;28;20045;-80
2023/05/10 02:49:54;;;;;;;35.10;23.15;;;12.10;99.90;;;;;;5049272;28;20131;-80
2023/05/10 02:52:26;;;;;;;44.25;25.42;;;12.10;99.90;;;;;;5067660;28;20079;-80
2023/05/10 02:54:55;;;;;;;55.85;27.15;;;12.10;99.90;;;;;;5034603;28;20037;-80
2023/05/10 02:57:27;;;;;;;43.47;25.63;;;12.00;99.90;;;;;;5049133;28;20032;-80
2023/05/10 02:59:52;;;;;;;62.15;28.70;;;12.00;99.90;;;;;;5050133;28;20037;-80
2023/05/10 03:02:18;;;;;;;52.67;26.85;;;12.10;99.90;;;;;;5034188;28;20043;-80
2023/05/10 03:04:44;;;;;;;50.20;26.67;;;12.10;99.90;;;;;;5050214;28;20045;-80
2023/05/10 03:07:09;;;;;;;70.63;29.38;;;12.10;99.90;;;;;;5031745;28;20041;-80
2023/05/10 03:09:35;;;;;;;55.85;27.73;;;12.10;99.90;;;;;;5066476;28;20037;-80
2023/05/10 03:12:11;;;;;;;65.50;30.60;;;12.10;99.90;;;;;;5067438;28;20040;-80
2023/05/10 03:14:56;;;;;;;52.83;29.38;;;12.10;99.90;;;;;;5049983;28;20128;-80
2023/05/10 03:17:42;;;;;;;43.63;27.77;;;12.10;99.90;;;;;;5050224;28;20525;-80
2023/05/10 03:20:16;;;;;;;71.10;32.53;;;12.10;99.90;;;;;;5059471;28;20036;-80
2023/05/10 03:22:47;;;;;;;61.08;31.85;;;12.10;99.90;;;;;;5054125;28;20505;-80
2023/05/10 03:25:16;;;;;;;69.15;33.25;;;12.10;99.90;;;;;;5038114;28;20040;-80
2023/05/10 03:27:43;;;;;;;66.05;32.25;;;12.10;99.90;;;;;;5053122;28;20040;-80
2023/05/10 03:30:11;;;;;;;36.63;26.42;;;12.10;99.90;;;;;;5037518;28;20570;-80
2023/05/10 03:32:37;;;;;;;77.18;33.47;;;12.10;99.90;;;;;;5054875;28;20090;-80
2023/05/10 03:35:08;;;;;;;65.30;32.15;;;12.10;99.90;;;;;;5037099;28;20041;-80
2023/05/10 03:37:34;;;;;;;58.10;30.45;;;12.10;99.90;;;;;;5054611;28;20415;-80
2023/05/10 03:40:00;;;;;;;44.78;28.75;;;12.10;99.90;;;;;;5036398;28;20041;-80
2023/05/10 03:42:25;;;;;;;54.92;29.60;;;12.10;99.90;;;;;;5037747;28;20043;-80
2023/05/10 03:44:51;;;;;;;43.00;28.15;;;12.10;99.90;;;;;;5054544;28;20380;-80
2023/05/10 03:47:16;;;;;;;51.45;28.83;;;12.10;99.90;;;;;;5054430;28;20375;-80
2023/05/10 03:49:42;;;;;;;73.20;31.40;;;12.10;99.90;;;;;;5053033;28;20041;-80
2023/05/10 03:52:07;;;;;;;41.72;28.00;;;12.10;99.90;;;;;;5054501;28;20041;-80
2023/05/10 03:54:33;;;;;;;45.13;27.27;;;12.10;99.90;;;;;;5054367;28;20048;-80
2023/05/10 03:56:58;;;;;;;45.00;26.40;;;12.10;99.90;;;;;;5054173;28;20052;-80
2023/05/10 03:59:24;;;;;;;57.10;29.15;;;12.10;99.90;;;;;;5052668;28;20037;-80
2023/05/10 04:01:49;;;;;;;32.17;23.42;;;12.10;99.90;;;;;;5037770;28;20040;-80
2023/05/10 04:04:15;;;;;;;50.35;28.20;;;12.10;99.90;;;;;;5054545;28;20040;-80
2023/05/10 04:06:40;;;;;;;38.40;24.75;;;12.00;99.90;;;;;;5053647;28;20044;-80
2023/05/10 04:09:06;;;;;;;42.38;26.17;;;12.00;99.90;;;;;;5054233;28;20045;-80
2023/05/10 04:11:32;;;;;;;33.85;23.65;;;12.00;99.90;;;;;;5053776;28;20499;-79
2023/05/10 04:13:57;;;;;;;40.42;24.60;;;12.00;99.90;;;;;;5069796;28;20041;-79
2023/05/10 04:16:23;;;;;;;37.15;23.70;;;12.00;99.90;;;;;;5076665;22;20098;-76
2023/05/10 04:18:48;;;;;;;40.35;24.08;;;12.00;99.90;;;;;;5055812;28;20056;-76
2023/05/10 04:21:14;;;;;;;32.35;22.88;;;12.00;99.90;;;;;;5067081;28;20041;-76
2023/05/10 04:23:40;;;;;;;43.65;26.15;;;12.00;99.90;;;;;;5070296;28;20472;-76
2023/05/10 04:26:06;;;;;;;44.17;26.30;;;12.00;99.90;;;;;;5060344;28;20438;-76
2023/05/10 04:28:31;;;;;;;48.20;27.42;;;12.00;99.90;;;;;;5052705;28;20040;-76
2023/05/10 04:31:02;;;;;;;38.70;25.17;;;12.00;99.90;;;;;;5052974;28;20096;-76
2023/05/10 04:33:27;;;;;;;36.53;23.38;;;12.10;99.90;;;;;;5049231;28;20102;-76
2023/05/10 04:35:53;;;;;;;40.92;25.60;;;12.10;99.90;;;;;;5053996;28;20442;-79
2023/05/10 04:38:18;;;;;;;53.40;27.50;;;12.10;99.90;;;;;;5051014;28;20488;-76
2023/05/10 04:40:44;;;;;;;39.15;25.35;;;12.00;99.90;;;;;;5051922;28;20082;-76
2023/05/10 04:43:09;;;;;;;47.88;26.23;;;12.10;99.90;;;;;;5051035;28;20044;-76
2023/05/10 04:45:35;;;;;;;44.80;25.48;;;12.10;99.90;;;;;;5051970;28;20037;-76
2023/05/10 04:48:00;;;;;;;33.65;23.35;;;12.10;99.90;;;;;;5050872;28;20040;-76
2023/05/10 04:50:26;;;;;;;56.10;27.45;;;12.10;99.90;;;;;;5051889;28;20402;-76
2023/05/10 04:52:51;;;;;;;40.28;25.65;;;12.00;99.90;;;;;;5052511;28;20067;-76
2023/05/10 04:55:17;;;;;;;54.55;28.33;;;12.10;99.90;;;;;;5049333;28;20036;-76
2023/05/10 04:57:42;;;;;;;47.78;25.60;;;12.00;99.90;;;;;;5050048;28;20037;-76
2023/05/10 05:00:08;;;;;;;48.95;26.65;;;12.10;99.90;;;;;;5052161;28;20499;-76
2023/05/10 05:02:35;;;;;;;50.85;26.95;;;12.10;99.90;;;;;;5056374;28;20403;-76
2023/05/10 05:05:00;;;;;;;36.17;23.50;;;12.10;99.90;;;;;;5050387;28;20099;-76
2023/05/10 05:07:26;;;;;;;45.00;25.63;;;12.10;99.90;;;;;;5050833;28;20511;-76
2023/05/10 05:09:51;;;;;;;40.60;25.27;;;12.10;99.90;;;;;;5052659;28;20124;-76
2023/05/10 05:12:17;;;;;;;52.08;27.17;;;12.10;99.90;;;;;;5051110;28;20041;-76
2023/05/10 05:14:42;;;;;;;47.22;25.30;;;12.10;99.90;;;;;;5052024;28;20049;-76
2023/05/10 05:17:08;;;;;;;67.90;29.77;;;12.10;99.90;;;;;;5051119;28;20083;-76
2023/05/10 05:19:34;;;;;;;50.13;27.30;;;12.10;99.90;;;;;;5051977;28;20041;-76
2023/05/10 05:21:59;;;;;;;50.00;26.52;;;12.10;99.90;;;;;;5051594;28;20418;-76
2023/05/10 05:24:25;;;;;;;42.60;23.92;;;12.20;99.90;;;;;;5052090;28;20040;-76
2023/05/10 05:26:51;;;;;;;53.60;27.00;;;12.10;99.90;;;;;;5030910;28;20036;-76
2023/05/10 05:29:16;;;;;;;47.63;25.38;;;12.20;99.90;;;;;;5029457;28;20115;-76
2023/05/10 05:31:42;;;;;;;40.67;24.77;;;12.20;99.90;;;;;;5051841;28;20068;-76
2023/05/10 05:34:07;;;;;;;35.28;23.30;;;12.20;99.90;;;;;;5050816;28;20522;-76
2023/05/10 05:36:38;;;;;;;52.05;26.52;;;12.20;99.90;;;;;;5050720;28;20040;-76
2023/05/10 05:39:03;;;;;;;40.70;23.25;;;12.20;99.90;;;;;;5046980;28;20414;-76
2023/05/10 05:41:29;;;;;;;47.03;25.52;;;12.30;99.90;;;;;;5034409;28;20037;-76
2023/05/10 05:43:54;;;;;;;67.97;28.23;;;12.20;99.90;;;;;;5051698;28;20075;-76
2023/05/10 05:46:20;;;;;;;45.25;25.05;;;12.30;99.90;;;;;;5034223;28;20040;-76
2023/05/10 05:48:45;;;;;;;50.17;25.17;;;12.30;99.90;;;;;;5051657;28;20123;-76
2023/05/10 05:51:11;;;;;;;44.47;24.38;;;12.40;99.90;;;;;;5052046;28;20491;-76
2023/05/10 05:53:37;;;;;;;62.63;26.55;;;12.50;99.90;;;;;;5049552;28;20041;-76
2023/05/10 05:56:03;;;;;;;69.95;28.35;;;12.60;99.90;;;;;;5051069;28;20037;-76
2023/05/10 05:58:28;;;;;;;37.33;22.83;;;12.70;99.90;;;;;;5068193;28;20037;-76
2023/05/10 06:00:54;;;;;;;57.53;25.65;;;12.70;99.90;;;;;;5050188;28;20128;-76
2023/05/10 06:03:20;;;;;;;33.55;22.35;;;12.70;99.90;;;;;;5050697;28;20072;-76
2023/05/10 06:05:46;;;;;;;52.30;25.48;;;12.70;99.90;;;;;;5034723;28;20044;-76
2023/05/10 06:08:11;;;;;;;42.15;22.83;;;12.80;99.90;;;;;;5050736;28;20040;-76
2023/05/10 06:10:37;;;;;;;58.65;26.23;;;12.80;99.90;;;;;;5051427;28;20075;-76
2023/05/10 06:13:03;;;;;;;39.83;21.77;;;12.80;99.90;;;;;;5034109;28;20079;-76
2023/05/10 06:15:28;;;;;;;44.88;23.17;;;12.90;99.90;;;;;;5049278;28;20036;-76
2023/05/10 06:17:54;;;;;;;43.30;22.33;;;12.90;99.90;;;;;;5049946;28;20051;-76
2023/05/10 06:20:19;;;;;;;41.13;22.70;;;12.90;99.90;;;;;;5051320;28;20120;-76
2023/05/10 06:22:45;;;;;;;31.80;20.27;;;12.90;99.90;;;;;;5050487;28;20037;-76
2023/05/10 06:25:11;;;;;;;48.55;23.05;;;13.00;99.90;;;;;;5056824;28;20036;-76
2023/05/10 06:27:36;;;;;;;61.05;25.27;;;12.90;99.90;;;;;;5032339;28;20040;-76
2023/05/10 06:30:02;;;;;;;39.22;21.77;;;12.90;99.90;;;;;;5033693;28;20045;-76
2023/05/10 06:32:28;;;;;;;39.13;21.75;;;12.90;99.90;;;;;;5050725;28;20406;-76
2023/05/10 06:34:53;;;;;;;56.85;24.70;;;13.00;99.90;;;;;;5051124;28;20124;-76
2023/05/10 06:37:19;;;;;;;40.65;22.10;;;13.00;99.90;;;;;;5055950;28;20033;-76
2023/05/10 06:39:44;;;;;;;43.30;22.92;;;13.10;99.90;;;;;;5045269;28;20043;-76
2023/05/10 06:42:10;;;;;;;37.42;21.20;;;13.20;99.90;;;;;;5050156;28;20041;-76
2023/05/10 06:44:35;;;;;;;35.13;20.52;;;13.30;99.90;;;;;;5045039;28;20037;-76
2023/05/10 06:47:01;;;;;;;42.55;22.00;;;13.40;99.90;;;;;;5054085;28;20060;-76
2023/05/10 06:49:27;;;;;;;37.30;19.95;;;13.50;99.90;;;;;;5049313;28;20048;-75
2023/05/10 06:51:52;;;;;;;30.67;19.27;;;13.50;99.90;;;;;;5050475;28;20039;-76
2023/05/10 06:54:18;;;;;;;23.85;17.42;;;13.50;99.90;;;;;;5049924;28;20452;-76
2023/05/10 06:56:43;;;;;;;41.10;20.77;;;13.50;99.90;;;;;;5038189;28;20037;-75
2023/05/10 06:59:09;;;;;;;26.55;17.42;;;13.60;99.90;;;;;;5032486;28;20450;-75
2023/05/10 07:01:34;;;;;;;28.08;17.75;;;13.70;99.90;;;;;;5050395;28;20039;-75
2023/05/10 07:04:00;;;;;;;30.88;17.85;;;13.70;99.90;;;;;;5051110;28;20052;-75
2023/05/10 07:06:26;;;;;;;26.85;16.88;;;13.80;99.90;;;;;;5031880;28;20075;-76
2023/05/10 07:08:51;;;;;;;21.70;15.82;;;13.70;99.90;;;;;;5051150;28;20040;-76
2023/05/10 07:11:17;;;;;;;22.85;16.85;;;13.80;99.90;;;;;;5054728;28;20071;-76
2023/05/10 07:13:44;;;;;;;30.48;17.67;;;13.80;99.90;;;;;;5033587;28;20040;-76
2023/05/10 07:16:09;;;;;;;22.50;15.43;;;13.80;99.90;;;;;;5048037;28;20033;-76
2023/05/10 07:18:35;;;;;;;21.48;15.35;;;13.80;99.90;;;;;;5049957;28;20083;-75
2023/05/10 07:21:01;;;;;;;26.25;15.88;;;13.80;99.90;;;;;;5033177;28;20036;-76
2023/05/10 07:23:27;;;;;;;21.55;15.40;;;13.80;99.90;;;;;;5050619;28;20053;-76
2023/05/10 07:25:53;;;;;;;25.05;15.70;;;13.80;99.90;;;;;;5050249;28;20075;-76
2023/05/10 07:28:19;;;;;;;25.65;15.90;;;13.80;99.90;;;;;;5050271;28;20168;-76
2023/05/10 07:30:45;;;;;;;36.10;17.48;;;13.90;99.90;;;;;;5048907;28;20049;-76
2023/05/10 07:33:13;;;;;;;17.23;13.13;;;13.80;99.90;;;;;;5050132;28;20041;-76
2023/05/10 07:35:39;;;;;;;21.77;14.38;;;13.80;99.90;;;;;;5050101;28;20500;-76
2023/05/10 07:38:04;;;;;;;20.25;14.57;;;13.80;99.90;;;;;;5049535;28;20062;-75
2023/05/10 07:40:30;;;;;;;24.73;16.63;;;13.90;99.90;;;;;;5050276;28;20047;-76
2023/05/10 07:42:56;;;;;;;30.05;17.80;;;14.00;99.90;;;;;;5049491;28;20113;-76
2023/05/10 07:45:22;;;;;;;19.50;14.15;;;14.20;99.90;;;;;;5049317;28;20049;-76
2023/05/10 07:47:48;;;;;;;14.93;12.02;;;14.40;99.90;;;;;;5049247;28;20499;-76
2023/05/10 07:50:14;;;;;;;16.92;10.55;;;14.50;99.90;;;;;;5048232;28;20031;-76
2023/05/10 07:52:39;;;;;;;13.15;10.60;;;14.50;99.90;;;;;;5050281;28;20045;-76
2023/05/10 07:55:07;;;;;;;15.75;10.55;;;14.60;99.90;;;;;;5049920;28;20142;-74
2023/05/10 07:57:33;;;;;;;11.55;8.73;;;14.70;99.90;;;;;;5049220;28;20045;-74
2023/05/10 07:59:59;;;;;;;11.00;8.55;;;14.70;99.90;;;;;;5049629;28;20560;-75
2023/05/10 08:02:25;;;;;;;9.07;7.40;;;14.80;99.90;;;;;;5031167;28;20033;-76
2023/05/10 08:04:51;;;;;;;8.55;6.82;;;14.80;99.90;;;;;;5048649;28;20083;-76
2023/05/10 08:07:17;;;;;;;9.05;6.40;;;14.90;99.90;;;;;;5049632;28;20029;-76
2023/05/10 08:09:42;;;;;;;9.02;7.72;;;14.90;99.90;;;;;;5052030;28;20407;-76
2023/05/10 08:12:08;;;;;;;7.30;6.47;;;15.10;99.90;;;;;;5052165;28;20396;-76
2023/05/10 08:14:33;;;;;;;8.98;7.03;;;15.20;99.90;;;;;;5053999;28;20041;-76
2023/05/10 08:16:59;;;;;;;7.03;6.30;;;15.20;99.90;;;;;;5053425;28;20506;-76
2023/05/10 08:19:25;;;;;;;6.75;5.78;;;15.20;99.90;;;;;;5052373;28;20115;-76
2023/05/10 08:21:50;;;;;;;8.77;7.15;;;15.30;99.90;;;;;;5053309;28;20033;-76
2023/05/10 08:24:16;;;;;;;8.50;7.70;;;15.30;99.90;;;;;;5051055;28;20048;-76
2023/05/10 08:26:41;;;;;;;7.18;6.57;;;15.40;99.90;;;;;;5051830;28;20161;-76
2023/05/10 08:29:07;;;;;;;7.40;6.70;;;15.60;99.90;;;;;;5050899;28;20514;-76
2023/05/10 08:31:32;;;;;;;9.05;8.10;;;15.60;99.90;;;;;;5053884;28;20148;-76
2023/05/10 08:33:58;;;;;;;8.43;7.63;;;15.60;99.90;;;;;;5051391;28;20132;-76
2023/05/10 08:36:24;;;;;;;8.75;7.78;;;15.70;99.90;;;;;;5047513;28;20065;-76
2023/05/10 08:38:53;;;;;;;9.63;8.63;;;15.60;99.90;;;;;;5039075;28;20028;-77
2023/05/10 08:41:24;;;;;;;10.43;8.90;;;15.70;99.90;;;;;;5055549;28;20036;-76
2023/05/10 08:43:51;;;;;;;9.93;8.93;;;15.80;99.90;;;;;;5050094;28;20052;-76
2023/05/10 08:46:18;;;;;;;9.13;8.23;;;15.90;99.90;;;;;;5053409;28;20040;-76
2023/05/10 08:48:45;;;;;;;9.80;8.50;;;16.10;99.90;;;;;;5039375;28;20044;-76
2023/05/10 08:51:14;;;;;;;11.27;10.02;;;16.10;99.90;;;;;;5051328;28;20063;-76
2023/05/10 08:53:40;;;;;;;9.07;8.20;;;16.20;99.90;;;;;;5054715;28;20029;-76
2023/05/10 08:56:06;;;;;;;9.32;8.38;;;16.20;99.90;;;;;;5050771;28;20041;-75
2023/05/10 08:58:32;;;;;;;8.63;7.75;;;16.10;99.90;;;;;;5055982;28;20048;-76
2023/05/10 09:00:59;;;;;;;10.35;9.35;;;16.10;99.90;;;;;;5057677;28;20055;-76
2023/05/10 09:03:24;;;;;;;10.80;9.80;;;16.00;99.90;;;;;;5051276;28;20039;-75
2023/05/10 09:05:50;;;;;;;10.00;9.07;;;15.90;99.90;;;;;;5047602;28;20030;-75
2023/05/10 09:08:17;;;;;;;11.50;9.95;;;15.80;99.90;;;;;;5035681;28;20043;-75
2023/05/10 09:10:43;;;;;;;10.85;9.75;;;15.70;99.90;;;;;;5035797;28;20037;-75
2023/05/10 09:13:11;;;;;;;10.95;9.65;;;15.70;99.90;;;;;;5051111;28;20067;-76
2023/05/10 09:15:37;;;;;;;10.02;9.07;;;15.60;99.90;;;;;;5052056;28;20041;-75
2023/05/10 09:18:03;;;;;;;10.27;9.35;;;15.60;99.90;;;;;;5052256;28;20090;-76
2023/05/10 09:20:29;;;;;;;11.38;10.27;;;15.50;99.90;;;;;;5049698;28;20036;-75
2023/05/10 09:22:54;;;;;;;12.40;10.85;;;15.50;99.90;;;;;;5051548;28;20094;-75
2023/05/10 09:25:20;;;;;;;13.20;11.90;;;15.50;99.90;;;;;;5050165;28;20032;-76
2023/05/10 09:27:47;;;;;;;13.13;11.73;;;15.60;99.90;;;;;;5052067;28;20041;-76
2023/05/10 09:30:22;;;;;;;14.50;12.27;;;15.60;99.90;;;;;;5047614;28;20071;-76
2023/05/10 09:32:48;;;;;;;14.77;13.27;;;15.60;99.90;;;;;;5042424;28;20045;-76
2023/05/10 09:35:16;;;;;;;18.55;14.52;;;15.50;99.90;;;;;;5054243;28;20044;-76
2023/05/10 09:37:47;;;;;;;13.73;12.40;;;15.50;99.90;;;;;;5050009;28;20066;-77
2023/05/10 09:40:21;;;;;;;15.40;13.90;;;15.60;99.90;;;;;;5033851;28;20048;-77
2023/05/10 09:43:01;;;;;;;16.45;14.85;;;15.60;99.90;;;;;;5052520;28;20082;-76
2023/05/10 09:45:31;;;;;;;14.90;13.50;;;15.70;99.90;;;;;;5036250;28;20052;-76
2023/05/10 09:47:58;;;;;;;14.55;13.15;;;15.80;99.90;;;;;;5052957;28;20067;-75
2023/05/10 09:50:24;;;;;;;15.35;13.85;;;15.80;99.90;;;;;;5029992;28;20048;-77
2023/05/10 09:53:00;;;;;;;14.43;13.02;;;15.90;99.90;;;;;;5054494;28;20033;-77
2023/05/10 09:55:40;;;;;;;13.75;12.43;;;15.80;99.90;;;;;;5051499;28;20094;-77
2023/05/10 09:58:10;;;;;;;14.23;12.85;;;15.80;99.90;;;;;;5034876;28;20052;-77
2023/05/10 10:00:40;;;;;;;15.98;14.50;;;15.80;99.90;;;;;;5052614;28;20231;-77
2023/05/10 10:03:11;;;;;;;13.93;12.63;;;15.90;99.90;;;;;;5051406;28;20399;-76
2023/05/10 10:05:40;;;;;;;14.15;12.85;;;16.00;99.90;;;;;;5034751;28;20403;-78
2023/05/10 10:08:06;;;;;;;13.48;12.23;;;16.20;99.90;;;;;;5045548;28;20048;-77
2023/05/10 10:10:33;;;;;;;16.25;14.73;;;16.30;99.90;;;;;;5055173;28;20048;-76
2023/05/10 10:12:59;;;;;;;15.07;13.52;;;16.50;99.90;;;;;;5048737;28;20399;-76
2023/05/10 10:15:25;;;;;;;15.40;14.00;;;16.60;99.90;;;;;;5086177;22;20112;-76
2023/05/10 10:17:54;;;;;;;17.15;15.52;;;16.80;99.90;;;;;;5072496;28;20055;-75
2023/05/10 10:20:22;;;;;;;17.35;15.65;;;17.00;99.90;;;;;;5074108;28;20040;-75
2023/05/10 10:22:53;;;;;;;17.02;15.43;;;17.10;99.90;;;;;;5087521;28;20041;-75
2023/05/10 10:25:21;;;;;;;16.13;14.52;;;17.20;99.90;;;;;;5069430;28;20040;-75
2023/05/10 10:27:53;;;;;;;15.00;13.50;;;17.20;99.90;;;;;;5067501;28;20482;-75
2023/05/10 10:30:46;;;;;;;14.68;13.32;;;17.30;99.90;;;;;;5065019;28;20439;-76
2023/05/10 10:33:17;;;;;;;14.85;13.00;;;17.40;99.90;;;;;;5071097;28;20093;-76
2023/05/10 10:35:48;;;;;;;15.15;13.75;;;17.40;99.90;;;;;;5053279;28;20060;-76
2023/05/10 10:38:23;;;;;;;16.27;14.77;;;17.40;99.90;;;;;;5068249;28;20041;-76
2023/05/10 10:41:07;;;;;;;14.77;13.40;;;17.30;99.90;;;;;;5051154;28;20154;-76
2023/05/10 10:43:36;;;;;;;15.57;14.15;;;17.30;99.90;;;;;;5051031;28;20498;-76
2023/05/10 10:46:20;;;;;;;18.30;16.45;;;17.20;99.90;;;;;;5053917;28;20098;-76
2023/05/10 10:49:12;;;;;;;17.23;15.50;;;17.10;99.90;;;;;;5070627;28;20048;-76
2023/05/10 10:51:42;;;;;;;17.50;16.00;;;16.90;99.90;;;;;;5053994;28;20086;-76
2023/05/10 10:54:11;;;;;;;17.58;15.73;;;16.70;99.90;;;;;;5052720;28;20040;-76
2023/05/10 10:56:39;;;;;;;15.35;13.95;;;16.60;99.90;;;;;;5061389;28;20045;-76
2023/05/10 10:59:08;;;;;;;15.52;14.13;;;16.40;99.90;;;;;;5070670;28;20028;-76
2023/05/10 11:01:37;;;;;;;18.60;16.80;;;16.30;99.90;;;;;;5071354;28;20397;-76
2023/05/10 11:04:08;;;;;;;16.95;15.45;;;16.10;99.90;;;;;;5070532;28;20482;-76
2023/05/10 11:06:35;;;;;;;18.63;16.83;;;16.10;99.90;;;;;;5069763;28;20054;-76
2023/05/10 11:09:11;;;;;;;18.55;16.70;;;16.10;99.90;;;;;;5066636;28;20058;-76
2023/05/10 11:11:49;;;;;;;16.52;14.98;;;16.10;99.90;;;;;;5069986;28;20072;-77
2023/05/10 11:14:22;;;;;;;16.42;14.82;;;16.20;99.90;;;;;;5054145;28;20048;-76
2023/05/10 11:16:58;;;;;;;16.50;14.93;;;16.30;99.90;;;;;;5070427;28;20041;-74
2023/05/10 11:19:32;;;;;;;15.65;14.25;;;16.30;99.90;;;;;;5053683;28;20043;-76
2023/05/10 11:22:03;;;;;;;17.08;15.50;;;16.30;99.90;;;;;;5085201;28;20044;-75
2023/05/10 11:24:29;;;;;;;18.75;17.05;;;16.30;99.90;;;;;;5065878;28;20044;-76
2023/05/10 11:26:56;;;;;;;19.65;17.85;;;16.30;99.90;;;;;;5051651;28;20063;-76
2023/05/10 11:29:26;;;;;;;19.50;17.70;;;16.20;99.90;;;;;;5068791;28;20135;-75
2023/05/10 11:31:57;;;;;;;22.50;20.40;;;16.00;99.90;;;;;;5069582;28;20494;-75
2023/05/10 11:34:35;;;;;;;23.30;20.95;;;16.00;99.90;;;;;;5055840;28;20037;-75
2023/05/10 11:37:01;;;;;;;22.88;20.60;;;15.80;99.90;;;;;;5053487;28;20040;-76
2023/05/10 11:39:29;;;;;;;24.10;21.70;;;15.70;99.90;;;;;;5047117;28;20051;-76
2023/05/10 11:41:55;;;;;;;24.27;21.77;;;15.60;99.90;;;;;;5053051;28;20044;-76
2023/05/10 11:44:32;;;;;;;24.25;21.85;;;15.60;99.90;;;;;;5053260;28;20141;-76
2023/05/10 11:47:03;;;;;;;24.05;21.55;;;15.50;99.90;;;;;;5053349;28;20400;-75
2023/05/10 11:49:29;;;;;;;24.10;21.90;;;15.60;99.90;;;;;;5067502;28;20036;-76
2023/05/10 11:52:07;;;;;;;25.70;23.33;;;15.60;99.90;;;;;;5072931;28;20055;-75
2023/05/10 11:54:38;;;;;;;23.58;21.48;;;15.60;99.90;;;;;;5069054;28;20090;-75
2023/05/10 11:57:09;;;;;;;23.10;20.90;;;15.60;99.90;;;;;;5054029;28;20047;-76
2023/05/10 11:59:36;;;;;;;22.83;20.65;;;15.70;99.90;;;;;;5045588;28;20375;-75
2023/05/10 12:02:04;;;;;;;21.48;19.38;;;15.80;99.90;;;;;;5082596;28;20063;-75
2023/05/10 12:04:30;;;;;;;21.00;19.00;;;15.80;99.90;;;;;;5090987;28;20410;-75
2023/05/10 12:06:59;;;;;;;21.48;19.40;;;15.90;99.90;;;;;;5057103;28;20048;-75
2023/05/10 12:09:32;;;;;;;23.05;20.65;;;16.00;99.90;;;;;;5052631;28;20072;-75
2023/05/10 12:12:09;;;;;;;19.90;18.00;;;16.00;99.90;;;;;;5073256;28;20040;-75
2023/05/10 12:14:38;;;;;;;19.80;17.98;;;16.10;99.90;;;;;;5070843;28;20028;-75
2023/05/10 12:17:06;;;;;;;19.77;17.88;;;16.20;99.90;;;;;;5047943;28;20056;-75
2023/05/10 12:19:41;;;;;;;20.48;18.58;;;16.40;99.90;;;;;;5068775;28;20032;-76
2023/05/10 12:22:22;;;;;;;19.10;17.40;;;16.50;99.90;;;;;;5068941;28;20044;-76
2023/05/10 12:24:58;;;;;;;21.42;19.23;;;16.70;99.90;;;;;;5072276;28;20517;-75
2023/05/10 12:27:31;;;;;;;18.42;16.83;;;16.90;99.90;;;;;;5062850;28;20040;-75
2023/05/10 12:29:58;;;;;;;;;;;17.10;99.90;;;;;;5056851;28;20097;-75
2023/05/10 12:32:41;;;;;;;17.15;15.38;;;17.10;99.90;;;;;;5073193;28;19917;-75
2023/05/10 12:35:21;;;;;;;14.60;13.18;;;17.10;99.90;;;;;;5090185;28;20155;-75